Marie Kirk — 2EAU7 — position and weather

sailwx.info

Track history (hours):
 
Tides and Currents Weather Stations Pressure Air Temp Water Temp Dewpoint Dewpoint Depression Visibility Wind Speed Wind Dir Waves Ship Positions

Marie Kirk

Last reported at 2018-Feb-16 15:24 UTC. Time now 2018-Feb-18 03:33 UTC.
Position N 30°03' W 014°26'.

Length 183 m; draft 10.1 m.

Type: Ship. MMSI: 235083559.

Date/timePositionNaut miles runAvg speedWind from/ knotsBaromVisibWave heightAir tempDewpointWater temp
2018-Feb-16 15:24N 30°03' W 014°26'5511.8
2018-Feb-16 10:42N 29°09' W 014°39'210.3
2018-Feb-16 10:29N 29°06' W 014°39'510.4
2018-Feb-16 10:00N 29°02' W 014°40'510.2
2018-Feb-16 09:28N 28°56' W 014°42'510.7
2018-Feb-16 08:58N 28°51' W 014°42'510.5
2018-Feb-16 08:30N 28°46' W 014°44'610.9
2018-Feb-16 08:00N 28°41' W 014°45'713.1
2018-Feb-16 07:30N 28°34' W 014°46'612.7
2018-Feb-16 07:00N 28°28' W 014°47'612.8
2018-Feb-16 06:30N 28°22' W 014°49'712.4
2018-Feb-16 05:56N 28°15' W 014°51'512.6
2018-Feb-16 05:30N 28°10' W 014°53'712.8
2018-Feb-16 04:59N 28°04' W 014°56'612.7
2018-Feb-16 04:30N 27°58' W 014°58'612.7
2018-Feb-16 04:00N 27°52' W 015°01'612.8
2018-Feb-16 03:30N 27°46' W 015°04'713.1
2018-Feb-16 02:59N 27°40' W 015°07'712.9
2018-Feb-16 02:29N 27°34' W 015°10'  
Track history (hours):
 
Tides and Currents Weather Stations Pressure Air Temp Water Temp Dewpoint Dewpoint Depression Visibility Wind Speed Wind Dir Waves Ship Positions

Marie Kirk

Last reported at 2018-Feb-16 15:24 UTC. Time now 2018-Feb-18 03:33 UTC.
Position N 30°03' W 014°26'.

Length 183 m; draft 10.1 m.

Type: Ship. MMSI: 235083559.

Date/timePositionNaut miles runAvg speedWind from/ knotsBaromVisibWave heightAir tempDewpointWater temp
2018-Feb-16 15:24N 30°03' W 014°26'5511.8
2018-Feb-16 10:42N 29°09' W 014°39'210.3
2018-Feb-16 10:29N 29°06' W 014°39'510.4
2018-Feb-16 10:00N 29°02' W 014°40'510.2
2018-Feb-16 09:28N 28°56' W 014°42'510.7
2018-Feb-16 08:58N 28°51' W 014°42'510.5
2018-Feb-16 08:30N 28°46' W 014°44'610.9
2018-Feb-16 08:00N 28°41' W 014°45'713.1
2018-Feb-16 07:30N 28°34' W 014°46'612.7
2018-Feb-16 07:00N 28°28' W 014°47'612.8
2018-Feb-16 06:30N 28°22' W 014°49'712.4
2018-Feb-16 05:56N 28°15' W 014°51'512.6
2018-Feb-16 05:30N 28°10' W 014°53'712.8
2018-Feb-16 04:59N 28°04' W 014°56'612.7
2018-Feb-16 04:30N 27°58' W 014°58'612.7
2018-Feb-16 04:00N 27°52' W 015°01'612.8
2018-Feb-16 03:30N 27°46' W 015°04'713.1
2018-Feb-16 02:59N 27°40' W 015°07'712.9
2018-Feb-16 02:29N 27°34' W 015°10'  

Dump ship's entire track history